Time;durP1;ratioP1;P1;durP2;ratioP2;P2;SDS_P1;SDS_P2;PMS_P1;PMS_P2;Temp;Humidity;BMP_temperature;BMP_pressure;BME280_temperature;BME280_humidity;BME280_pressure;Samples;Min_cycle;Max_cycle;Signal;HPM_P1;HPM_P2
2022/05/15 00:00:37;;;;;;;2.65;1.00;;;15.90;98.70;;;;;;4971299;28;20430;-73
2022/05/15 00:00:41;;;;;;;0.10;0.10;;;16.00;98.60;;;;;;4970385;28;20398;-74
2022/05/15 00:03:18;;;;;;;0.00;0.00;;;15.90;98.50;;;;;;4970446;28;20031;-74
2022/05/15 00:06:11;;;;;;;0.75;0.52;;;15.90;98.70;;;;;;4970453;28;20027;-74
2022/05/15 00:08:38;;;;;;;0.28;0.28;;;15.90;98.90;;;;;;4971612;28;20097;-74
2022/05/15 00:11:06;;;;;;;0.00;0.00;;;15.90;98.90;;;;;;4990513;28;20026;-73
2022/05/15 00:13:33;;;;;;;0.00;0.00;;;15.90;99.00;;;;;;4989676;28;20068;-74
2022/05/15 00:15:59;;;;;;;0.40;0.40;;;15.90;98.70;;;;;;4990796;28;20125;-74
2022/05/15 00:18:25;;;;;;;0.00;0.00;;;15.80;98.60;;;;;;4990974;28;20042;-74
2022/05/15 00:20:51;;;;;;;1.63;1.17;;;15.80;98.60;;;;;;4993353;28;20131;-74
2022/05/15 00:23:19;;;;;;;0.00;0.00;;;15.80;98.40;;;;;;4978240;28;20023;-73
2022/05/15 00:25:46;;;;;;;0.00;0.00;;;15.80;98.30;;;;;;4974329;28;20042;-73
2022/05/15 00:28:13;;;;;;;0.10;0.10;;;15.70;98.50;;;;;;4974785;28;20129;-74
2022/05/15 00:30:39;;;;;;;2.72;0.32;;;15.60;98.40;;;;;;4974109;28;20419;-73
2022/05/15 00:33:06;;;;;;;0.17;0.17;;;15.50;98.40;;;;;;4957962;28;20042;-74
2022/05/15 00:35:35;;;;;;;0.10;0.10;;;15.50;98.40;;;;;;4975007;28;20022;-74
2022/05/15 00:38:03;;;;;;;0.47;0.47;;;15.40;98.40;;;;;;4973635;28;20042;-72
2022/05/15 00:40:29;;;;;;;0.25;0.20;;;15.40;98.50;;;;;;4990219;28;20030;-72
2022/05/15 00:42:55;;;;;;;0.10;0.10;;;15.30;98.50;;;;;;4994309;28;20022;-72
2022/05/15 00:45:23;;;;;;;0.13;0.13;;;15.20;98.50;;;;;;4994298;28;20394;-73
2022/05/15 00:47:49;;;;;;;0.85;0.57;;;15.00;98.90;;;;;;4993442;28;20030;-73
2022/05/15 00:50:29;;;;;;;0.03;0.03;;;15.10;98.90;;;;;;4993942;28;20483;-73
2022/05/15 00:53:02;;;;;;;0.68;0.32;;;15.20;98.60;;;;;;4993026;28;20038;-73
2022/05/15 00:55:36;;;;;;;0.30;0.30;;;15.20;98.20;;;;;;4993158;28;20041;-74
2022/05/15 00:58:24;;;;;;;9.85;0.80;;;15.30;98.40;;;;;;4994082;28;20026;-73
2022/05/15 01:00:51;;;;;;;0.60;0.50;;;15.20;98.20;;;;;;4992812;28;20410;-73
2022/05/15 01:03:20;;;;;;;0.30;0.30;;;15.20;98.30;;;;;;4993449;28;20052;-73
2022/05/15 01:05:54;;;;;;;0.00;0.00;;;15.10;98.30;;;;;;4970017;28;20476;-74
2022/05/15 01:08:23;;;;;;;0.60;0.60;;;15.10;98.40;;;;;;4974783;28;20031;-73
2022/05/15 01:10:53;;;;;;;0.82;0.82;;;15.00;98.60;;;;;;4987369;28;20106;-73
2022/05/15 01:13:22;;;;;;;0.88;0.63;;;14.90;99.00;;;;;;4974317;28;20528;-73
2022/05/15 01:15:49;;;;;;;0.75;0.57;;;14.90;99.00;;;;;;4962479;28;20094;-73
2022/05/15 01:18:22;;;;;;;0.45;0.45;;;14.90;99.20;;;;;;4953634;29;20503;-73
2022/05/15 01:20:54;;;;;;;5.47;1.33;;;14.90;99.20;;;;;;4953505;29;20241;-73
2022/05/15 01:23:20;;;;;;;0.40;0.38;;;14.90;99.10;;;;;;4956344;28;20027;-73
2022/05/15 01:25:46;;;;;;;0.13;0.13;;;14.90;99.00;;;;;;4973267;28;20031;-73
2022/05/15 01:28:22;;;;;;;1.27;0.52;;;14.60;99.60;;;;;;4972814;28;20547;-73
2022/05/15 01:30:53;;;;;;;0.50;0.40;;;14.60;99.80;;;;;;4956620;28;20042;-73
2022/05/15 01:33:19;;;;;;;1.35;0.63;;;14.60;99.80;;;;;;4974018;28;20046;-73
2022/05/15 01:35:45;;;;;;;0.38;0.38;;;14.60;99.90;;;;;;4972915;28;20066;-73
2022/05/15 01:38:12;;;;;;;0.45;0.45;;;14.40;99.90;;;;;;4972521;28;20035;-73
2022/05/15 01:40:39;;;;;;;0.10;0.10;;;14.40;99.90;;;;;;4984604;28;20506;-74
2022/05/15 01:43:06;;;;;;;0.10;0.10;;;14.40;99.90;;;;;;4972623;28;20299;-73
2022/05/15 01:45:32;;;;;;;0.38;0.38;;;14.40;99.90;;;;;;4972699;28;20495;-73
2022/05/15 01:47:58;;;;;;;0.28;0.28;;;14.40;99.90;;;;;;4973796;28;20046;-73
2022/05/15 01:50:24;;;;;;;0.55;0.55;;;14.30;99.90;;;;;;4973796;28;20031;-73
2022/05/15 01:52:50;;;;;;;0.45;0.45;;;14.40;99.90;;;;;;4972694;28;20046;-74
2022/05/15 01:55:17;;;;;;;0.00;0.00;;;14.40;99.90;;;;;;4973380;28;20035;-73
2022/05/15 01:57:43;;;;;;;0.10;0.10;;;14.40;99.90;;;;;;4972387;28;20449;-73
2022/05/15 02:00:19;;;;;;;0.32;0.32;;;14.40;99.90;;;;;;4973690;28;20037;-73
2022/05/15 02:02:46;;;;;;;0.10;0.10;;;14.40;99.90;;;;;;4972235;28;20030;-74
2022/05/15 02:05:13;;;;;;;1.13;0.77;;;14.40;99.90;;;;;;4972304;28;20018;-74
2022/05/15 02:07:39;;;;;;;0.00;0.00;;;14.40;99.90;;;;;;4973297;28;20089;-73
2022/05/15 02:10:07;;;;;;;0.00;0.00;;;14.40;99.90;;;;;;4984361;28;20089;-74
2022/05/15 02:12:33;;;;;;;0.00;0.00;;;14.30;99.90;;;;;;4991745;28;20126;-74
2022/05/15 02:15:01;;;;;;;0.00;0.00;;;14.30;99.90;;;;;;4986126;28;20129;-73
2022/05/15 02:17:28;;;;;;;0.65;0.65;;;14.30;99.90;;;;;;4972077;28;20041;-73
2022/05/15 02:19:54;;;;;;;0.10;0.10;;;14.30;99.90;;;;;;4971775;28;20031;-74
2022/05/15 02:22:19;;;;;;;0.00;0.00;;;14.30;99.90;;;;;;4965879;28;20094;-74
2022/05/15 02:24:45;;;;;;;0.65;0.40;;;14.30;99.90;;;;;;4971824;28;20029;-74
2022/05/15 02:27:11;;;;;;;0.13;0.13;;;14.30;99.90;;;;;;4971670;28;20022;-74
2022/05/15 02:29:37;;;;;;;0.10;0.10;;;14.30;99.90;;;;;;4971797;28;20042;-73
2022/05/15 02:32:04;;;;;;;1.02;0.43;;;14.30;99.90;;;;;;4972847;28;20038;-73
2022/05/15 02:34:30;;;;;;;0.32;0.30;;;14.20;99.90;;;;;;4971903;28;20039;-73
2022/05/15 02:36:56;;;;;;;0.50;0.50;;;14.20;99.90;;;;;;4971654;28;20562;-74
2022/05/15 02:39:22;;;;;;;0.00;0.00;;;14.20;99.90;;;;;;4979049;28;20042;-73
2022/05/15 02:41:48;;;;;;;0.00;0.00;;;14.20;99.90;;;;;;4990573;28;20510;-74
2022/05/15 02:44:13;;;;;;;2.17;0.90;;;14.20;99.90;;;;;;4991809;28;20029;-73
2022/05/15 02:46:39;;;;;;;0.47;0.47;;;14.20;99.90;;;;;;4990803;28;20033;-73
2022/05/15 02:51:50;;;;;;;0.00;0.00;;;14.10;99.90;;;;;;4990932;28;20062;-73
2022/05/15 02:54:16;;;;;;;2.25;1.08;;;14.00;99.90;;;;;;4991668;28;20062;-73
2022/05/15 02:56:42;;;;;;;0.57;0.57;;;13.80;99.90;;;;;;4992075;28;20121;-73
2022/05/15 02:59:08;;;;;;;2.38;1.20;;;13.80;99.90;;;;;;4991706;28;20034;-73
2022/05/15 03:01:35;;;;;;;0.00;0.00;;;13.80;99.90;;;;;;4991525;28;20030;-74
2022/05/15 03:04:02;;;;;;;0.17;0.17;;;13.80;99.90;;;;;;4990437;28;20030;-73
2022/05/15 03:06:28;;;;;;;0.00;0.00;;;13.70;99.90;;;;;;4991929;28;20113;-74
2022/05/15 03:08:54;;;;;;;0.05;0.05;;;13.70;99.90;;;;;;4990279;28;20117;-73
2022/05/15 03:11:20;;;;;;;0.10;0.10;;;13.70;99.90;;;;;;4991746;28;20483;-73
2022/05/15 03:13:46;;;;;;;0.50;0.50;;;13.70;99.90;;;;;;4990010;28;20030;-73
2022/05/15 03:16:13;;;;;;;0.45;0.45;;;13.70;99.90;;;;;;4974097;28;20069;-73
2022/05/15 03:18:44;;;;;;;0.00;0.00;;;13.70;99.90;;;;;;4986579;28;20035;-73
2022/05/15 03:21:13;;;;;;;0.00;0.00;;;13.70;99.90;;;;;;4971034;28;20031;-73
2022/05/15 03:23:39;;;;;;;0.10;0.10;;;13.70;99.90;;;;;;4971970;28;20034;-73
2022/05/15 03:26:05;;;;;;;0.10;0.10;;;13.70;99.90;;;;;;4986828;28;20418;-73
2022/05/15 03:28:31;;;;;;;1.55;1.30;;;13.60;99.90;;;;;;4970806;28;20046;-74
2022/05/15 03:30:57;;;;;;;0.03;0.03;;;13.70;99.90;;;;;;4972029;28;20031;-73
2022/05/15 03:33:22;;;;;;;0.20;0.20;;;13.70;99.90;;;;;;4971955;28;20426;-73
2022/05/15 03:35:49;;;;;;;0.10;0.10;;;13.50;99.90;;;;;;4971852;28;20624;-73
2022/05/15 03:38:14;;;;;;;0.10;0.10;;;13.50;99.90;;;;;;4971577;28;20066;-74
2022/05/15 03:40:40;;;;;;;1.20;0.73;;;13.50;99.90;;;;;;4987361;28;20112;-72
2022/05/15 03:43:06;;;;;;;0.32;0.32;;;13.60;99.90;;;;;;4989744;28;20760;-72
2022/05/15 03:45:33;;;;;;;0.45;0.45;;;13.60;99.90;;;;;;4991171;28;20030;-72
2022/05/15 03:47:58;;;;;;;1.58;1.02;;;13.60;99.90;;;;;;4989842;28;20062;-72
2022/05/15 03:50:27;;;;;;;0.20;0.20;;;13.50;99.90;;;;;;4991006;28;20108;-72
2022/05/15 03:52:53;;;;;;;1.42;1.33;;;13.50;99.90;;;;;;4990203;28;20022;-72
2022/05/15 03:55:19;;;;;;;0.45;0.45;;;13.40;99.90;;;;;;4989679;28;20030;-72
2022/05/15 03:57:45;;;;;;;0.40;0.40;;;13.50;99.90;;;;;;4991173;28;20077;-75
2022/05/15 04:00:16;;;;;;;0.15;0.15;;;13.50;99.90;;;;;;4990501;28;20103;-78
2022/05/15 04:02:42;;;;;;;1.02;0.73;;;13.50;99.90;;;;;;4989528;28;20034;-75
2022/05/15 04:05:10;;;;;;;0.15;0.15;;;13.50;99.90;;;;;;4989646;28;20058;-74
2022/05/15 04:07:48;;;;;;;0.00;0.00;;;13.40;99.90;;;;;;4989781;28;20018;-75
2022/05/15 04:10:18;;;;;;;0.38;0.38;;;13.40;99.90;;;;;;4990916;28;20386;-74
2022/05/15 04:12:44;;;;;;;0.15;0.10;;;13.40;99.90;;;;;;4989794;28;20515;-75
2022/05/15 04:15:11;;;;;;;0.65;0.47;;;13.50;99.90;;;;;;4981473;28;20480;-75
2022/05/15 04:17:46;;;;;;;0.13;0.13;;;13.60;99.90;;;;;;4971116;28;20026;-75
2022/05/15 04:20:15;;;;;;;0.63;0.57;;;13.50;99.90;;;;;;4970015;28;20419;-75
2022/05/15 04:22:41;;;;;;;0.10;0.10;;;13.50;99.90;;;;;;4969876;28;20664;-74
2022/05/15 04:25:10;;;;;;;8.00;2.67;;;13.50;99.90;;;;;;4971597;28;20030;-75
2022/05/15 04:27:36;;;;;;;0.30;0.30;;;13.60;99.90;;;;;;4970030;28;20026;-75
2022/05/15 04:30:02;;;;;;;0.45;0.45;;;13.70;99.90;;;;;;4970133;28;20097;-74
2022/05/15 04:32:28;;;;;;;0.17;0.17;;;13.70;99.90;;;;;;4970177;28;20097;-75
2022/05/15 04:34:54;;;;;;;0.40;0.40;;;13.70;99.90;;;;;;4971674;28;20031;-74
2022/05/15 04:37:19;;;;;;;2.25;1.52;;;13.80;99.90;;;;;;4970402;28;20054;-74
2022/05/15 04:39:45;;;;;;;1.20;1.08;;;13.70;99.90;;;;;;4979172;28;20038;-75
2022/05/15 04:42:11;;;;;;;0.00;0.00;;;13.80;99.90;;;;;;4989703;28;20049;-74
2022/05/15 04:44:37;;;;;;;0.38;0.38;;;13.70;99.90;;;;;;4989249;28;20117;-74
2022/05/15 04:47:03;;;;;;;0.08;0.08;;;13.70;99.90;;;;;;4990890;28;20038;-75
2022/05/15 04:49:29;;;;;;;0.77;0.77;;;13.80;99.90;;;;;;4989232;28;20518;-75
2022/05/15 04:51:54;;;;;;;0.15;0.15;;;13.90;99.90;;;;;;4990634;28;20100;-75
2022/05/15 04:54:20;;;;;;;0.10;0.10;;;14.00;99.90;;;;;;4990460;28;20108;-75
2022/05/15 04:56:46;;;;;;;2.60;1.00;;;14.00;99.90;;;;;;4973289;28;20080;-75
2022/05/15 04:59:12;;;;;;;0.52;0.45;;;14.00;99.90;;;;;;4988758;28;20046;-76
2022/05/15 05:01:37;;;;;;;3.75;2.00;;;14.00;99.90;;;;;;4990450;28;20840;-76
2022/05/15 05:04:03;;;;;;;1.25;1.15;;;14.00;99.90;;;;;;4990478;28;20109;-75
2022/05/15 05:06:29;;;;;;;0.68;0.68;;;14.10;99.90;;;;;;4992586;28;20034;-75
2022/05/15 05:08:55;;;;;;;0.15;0.15;;;14.10;99.90;;;;;;4976446;28;20030;-75
2022/05/15 05:11:21;;;;;;;0.57;0.50;;;14.20;99.90;;;;;;4992535;28;20093;-75
2022/05/15 05:13:47;;;;;;;2.00;1.42;;;14.20;99.90;;;;;;4993739;28;20034;-75
2022/05/15 05:16:13;;;;;;;0.70;0.65;;;14.20;99.90;;;;;;4973063;28;20126;-75
2022/05/15 05:18:40;;;;;;;0.30;0.30;;;14.20;99.90;;;;;;4953691;28;20495;-75
2022/05/15 05:21:06;;;;;;;0.70;0.70;;;14.20;99.90;;;;;;4953729;29;20043;-75
2022/05/15 05:23:32;;;;;;;1.15;0.75;;;14.20;99.90;;;;;;4954077;28;20035;-75
2022/05/15 05:25:58;;;;;;;1.55;0.47;;;14.30;99.90;;;;;;4954948;28;20041;-76
2022/05/15 05:28:25;;;;;;;0.38;0.38;;;14.30;99.90;;;;;;4954913;28;20046;-75
2022/05/15 05:30:52;;;;;;;0.40;0.40;;;14.40;99.90;;;;;;4953016;28;20027;-75
2022/05/15 05:33:19;;;;;;;0.10;0.10;;;14.40;99.90;;;;;;4953284;29;20530;-75
2022/05/15 05:35:45;;;;;;;0.17;0.17;;;14.40;99.90;;;;;;4954808;28;20090;-74
2022/05/15 05:38:11;;;;;;;0.17;0.17;;;14.50;99.90;;;;;;4953052;29;20031;-73
2022/05/15 05:40:37;;;;;;;0.30;0.30;;;14.40;99.90;;;;;;4986377;28;20041;-72
2022/05/15 05:43:03;;;;;;;0.28;0.22;;;14.50;99.90;;;;;;4992222;28;20061;-74
2022/05/15 05:45:29;;;;;;;0.00;0.00;;;14.50;99.90;;;;;;4991998;28;20034;-74
2022/05/15 05:47:55;;;;;;;0.15;0.15;;;14.60;99.90;;;;;;4991979;28;20105;-79
2022/05/15 05:50:25;;;;;;;0.10;0.10;;;14.70;99.90;;;;;;4991550;28;20107;-75
2022/05/15 05:52:51;;;;;;;0.00;0.00;;;14.80;99.90;;;;;;4991797;28;20034;-76
2022/05/15 05:55:19;;;;;;;0.20;0.20;;;14.90;99.90;;;;;;4991523;28;20030;-75
2022/05/15 05:57:46;;;;;;;0.00;0.00;;;15.00;99.90;;;;;;4991761;28;20386;-73
2022/05/15 06:00:19;;;;;;;0.45;0.45;;;15.20;99.90;;;;;;4991228;28;20048;-75
2022/05/15 06:02:45;;;;;;;0.75;0.50;;;15.40;99.90;;;;;;4972159;28;20035;-73
2022/05/15 06:05:11;;;;;;;0.25;0.25;;;15.50;99.90;;;;;;4988811;28;20162;-71
2022/05/15 06:07:38;;;;;;;0.28;0.28;;;15.50;99.90;;;;;;4973517;28;20364;-78
2022/05/15 06:10:07;;;;;;;0.13;0.13;;;15.50;99.90;;;;;;4987872;28;20027;-80
2022/05/15 06:12:33;;;;;;;2.70;0.43;;;15.40;99.90;;;;;;4988426;28;20069;-76
2022/05/15 06:14:59;;;;;;;9.02;0.55;;;15.50;99.90;;;;;;4973092;28;20034;-76
2022/05/15 06:17:28;;;;;;;0.00;0.00;;;15.60;99.90;;;;;;4976319;28;20089;-77
2022/05/15 06:19:55;;;;;;;0.00;0.00;;;15.70;99.90;;;;;;4973086;28;20076;-75
2022/05/15 06:22:21;;;;;;;1.27;1.17;;;15.80;99.90;;;;;;4971520;28;20550;-76
2022/05/15 06:24:47;;;;;;;0.20;0.20;;;15.80;99.90;;;;;;4973086;28;20118;-75
2022/05/15 06:27:16;;;;;;;0.32;0.30;;;15.70;99.90;;;;;;4973002;28;20023;-66
2022/05/15 06:29:42;;;;;;;0.28;0.28;;;15.80;99.90;;;;;;4971471;28;20042;-67
2022/05/15 06:32:09;;;;;;;0.17;0.15;;;15.90;99.90;;;;;;4973128;28;20090;-70
2022/05/15 06:34:35;;;;;;;0.52;0.52;;;15.80;99.90;;;;;;4971502;28;20491;-67
2022/05/15 06:37:01;;;;;;;0.03;0.03;;;16.00;99.90;;;;;;4973112;28;20038;-67
2022/05/15 06:39:27;;;;;;;0.15;0.15;;;16.00;99.90;;;;;;4972643;28;20530;-68
2022/05/15 06:41:59;;;;;;;0.10;0.10;;;16.10;99.90;;;;;;4972807;28;20107;-67
2022/05/15 06:44:25;;;;;;;0.35;0.20;;;16.20;99.90;;;;;;4972560;28;20029;-67
2022/05/15 06:46:50;;;;;;;0.20;0.20;;;16.30;99.90;;;;;;4972640;28;20030;-68
2022/05/15 06:49:16;;;;;;;0.20;0.20;;;16.40;99.90;;;;;;4971061;28;20074;-66
2022/05/15 06:51:43;;;;;;;0.10;0.10;;;16.60;99.90;;;;;;4972450;28;20058;-66
2022/05/15 06:54:09;;;;;;;0.05;0.05;;;16.70;99.90;;;;;;4972606;28;20121;-65
2022/05/15 06:59:19;;;;;;;0.32;0.32;;;16.90;99.90;;;;;;4972146;28;20041;-78
2022/05/15 07:01:44;;;;;;;4.97;2.95;;;17.20;99.90;;;;;;4971982;28;20031;-74
2022/05/15 07:04:10;;;;;;;0.90;0.60;;;17.20;99.90;;;;;;4970748;28;20027;-79
2022/05/15 07:06:36;;;;;;;3.83;2.63;;;17.20;99.90;;;;;;4972090;28;20038;-81
2022/05/15 07:09:01;;;;;;;0.65;0.55;;;17.30;99.90;;;;;;4954542;28;20031;-76
2022/05/15 07:11:27;;;;;;;2.33;1.15;;;17.40;99.90;;;;;;4972066;28;20027;-78
2022/05/15 07:13:53;;;;;;;0.65;0.65;;;17.60;99.90;;;;;;4970949;28;20038;-74
2022/05/15 07:16:19;;;;;;;0.63;0.63;;;17.80;99.90;;;;;;4970697;28;20395;-76
2022/05/15 07:18:45;;;;;;;0.80;0.57;;;17.90;99.70;;;;;;4971878;28;20109;-76
2022/05/15 07:21:11;;;;;;;0.05;0.05;;;18.10;99.30;;;;;;4971928;28;20027;-76
2022/05/15 07:23:37;;;;;;;0.45;0.45;;;18.20;99.10;;;;;;4971892;28;20027;-77
2022/05/15 07:26:03;;;;;;;0.47;0.30;;;18.40;98.80;;;;;;4970829;28;20082;-76
2022/05/15 07:28:30;;;;;;;0.00;0.00;;;18.60;98.20;;;;;;4969741;28;20095;-73
2022/05/15 07:30:56;;;;;;;0.38;0.35;;;18.70;98.10;;;;;;4971835;28;20034;-75
2022/05/15 07:33:26;;;;;;;0.00;0.00;;;18.70;97.80;;;;;;4970343;28;20116;-77
2022/05/15 07:35:55;;;;;;;0.30;0.30;;;18.90;97.70;;;;;;4966053;28;20051;-74
2022/05/15 07:38:21;;;;;;;1.10;1.00;;;18.90;97.30;;;;;;4970457;28;20415;-79
2022/05/15 07:40:47;;;;;;;3.75;0.80;;;19.00;96.90;;;;;;4958347;28;20057;-79
2022/05/15 07:43:14;;;;;;;1.38;1.05;;;19.00;96.80;;;;;;4955192;28;20487;-79
2022/05/15 07:45:41;;;;;;;0.00;0.00;;;19.30;96.80;;;;;;4953330;29;20027;-79
2022/05/15 07:48:08;;;;;;;0.00;0.00;;;19.30;96.60;;;;;;4952989;28;20420;-76
2022/05/15 07:50:37;;;;;;;0.10;0.10;;;19.30;96.20;;;;;;4956753;28;20049;-78
2022/05/15 07:53:03;;;;;;;0.05;0.05;;;19.50;95.70;;;;;;4959437;28;20054;-80
2022/05/15 07:55:29;;;;;;;0.00;0.00;;;19.70;95.60;;;;;;4967299;28;20066;-78
2022/05/15 07:57:54;;;;;;;0.10;0.10;;;19.80;95.60;;;;;;4962105;28;20038;-80
2022/05/15 08:00:20;;;;;;;0.45;0.22;;;19.80;95.50;;;;;;4949689;28;20030;-79
2022/05/15 08:02:46;;;;;;;0.40;0.30;;;19.80;95.50;;;;;;4970218;28;20117;-82
2022/05/15 08:08:09;;;;;;;1.55;0.50;;;20.00;96.40;;;;;;4983789;28;20023;-80
2022/05/15 08:10:44;;;;;;;1.70;0.75;;;20.00;94.70;;;;;;5002277;28;20023;-78
2022/05/15 08:13:15;;;;;;;0.30;0.30;;;20.20;95.10;;;;;;4972492;28;20019;-77
2022/05/15 08:15:42;;;;;;;10.25;1.38;;;20.10;95.30;;;;;;4965044;28;20031;-80
2022/05/15 08:23:48;;;;;;;0.60;0.40;;;20.50;94.30;;;;;;4971379;28;20550;-69
2022/05/15 08:26:14;;;;;;;1.45;0.80;;;20.60;93.80;;;;;;4970987;28;20034;-68
2022/05/15 08:28:40;;;;;;;0.00;0.00;;;20.70;93.60;;;;;;4952563;28;20398;-68
2022/05/15 08:31:08;;;;;;;5.20;1.55;;;20.60;93.60;;;;;;4950904;28;20020;-67
2022/05/15 08:33:37;;;;;;;0.03;0.03;;;20.70;93.10;;;;;;4949330;29;20090;-68
2022/05/15 08:36:04;;;;;;;0.25;0.25;;;20.90;93.30;;;;;;4950866;29;20157;-68
2022/05/15 08:38:31;;;;;;;0.00;0.00;;;21.00;93.90;;;;;;4951751;29;20031;-68
2022/05/15 08:41:13;;;;;;;0.00;0.00;;;21.10;94.00;;;;;;4990143;28;20033;-68
2022/05/15 08:43:51;;;;;;;0.55;0.52;;;21.10;94.00;;;;;;4993390;28;20030;-68
2022/05/15 08:46:32;;;;;;;1.25;1.05;;;21.00;93.70;;;;;;4994499;28;20065;-68
2022/05/15 08:49:10;;;;;;;;;;;21.20;93.40;;;;;;4994810;28;20527;-68
2022/05/15 08:51:38;;;;;;;0.65;0.35;;;21.30;93.10;;;;;;4994397;28;19910;-68
2022/05/15 08:54:07;;;;;;;0.10;0.10;;;21.20;92.80;;;;;;4992855;28;20114;-68
2022/05/15 08:56:44;;;;;;;0.20;0.17;;;21.40;92.80;;;;;;4994223;28;20030;-68
2022/05/15 08:59:31;;;;;;;0.10;0.10;;;21.50;92.50;;;;;;4992644;28;20121;-68
2022/05/15 09:02:00;;;;;;;0.00;0.00;;;21.80;92.60;;;;;;4992851;28;20053;-68
2022/05/15 09:04:28;;;;;;;0.40;0.22;;;22.00;92.50;;;;;;4993836;28;20339;-68
2022/05/15 09:07:13;;;;;;;0.00;0.00;;;22.20;91.50;;;;;;4992837;28;20394;-67
2022/05/15 09:10:03;;;;;;;0.75;0.55;;;22.40;91.60;;;;;;4992649;28;20062;-67
2022/05/15 09:12:32;;;;;;;0.40;0.40;;;22.40;90.80;;;;;;4992650;28;20026;-67
2022/05/15 09:15:19;;;;;;;0.22;0.22;;;22.40;90.80;;;;;;4992505;28;20478;-67
2022/05/15 09:17:47;;;;;;;0.93;0.68;;;22.30;91.00;;;;;;4993783;28;20031;-68
2022/05/15 09:21:13;;;;;;;5.47;1.25;;;22.50;91.30;;;;;;4993291;28;20035;-68
2022/05/15 09:23:52;;;;;;;0.22;0.17;;;22.70;90.90;;;;;;4976081;28;20113;-68
2022/05/15 09:26:30;;;;;;;0.00;0.00;;;23.10;90.20;;;;;;4992547;28;20031;-68
2022/05/15 09:29:01;;;;;;;0.17;0.17;;;23.60;88.10;;;;;;4992342;28;20030;-68
2022/05/15 09:31:42;;;;;;;0.00;0.00;;;23.60;85.60;;;;;;4992491;28;20042;-67
2022/05/15 09:34:36;;;;;;;1.85;0.43;;;23.20;85.30;;;;;;4993603;28;20625;-68
2022/05/15 09:40:01;;;;;;;0.10;0.00;;;23.50;85.70;;;;;;4991794;28;20030;-68
2022/05/15 09:45:14;;;;;;;0.25;0.20;;;23.60;84.50;;;;;;4993083;28;20809;-68
2022/05/15 09:47:45;;;;;;;0.88;0.85;;;23.80;84.70;;;;;;4993115;28;20037;-68
2022/05/15 09:50:38;;;;;;;;;;;23.80;83.70;;;;;;4992013;28;20179;-68
2022/05/15 09:53:46;;;;;;;0.17;0.17;;;23.90;83.60;;;;;;4992811;28;20325;-68
2022/05/15 09:56:21;;;;;;;0.00;0.00;;;24.00;83.80;;;;;;4969467;28;20051;-68
2022/05/15 09:59:12;;;;;;;0.00;0.00;;;24.30;82.50;;;;;;4992526;28;20101;-68
2022/05/15 10:01:40;;;;;;;;;;;24.30;81.60;;;;;;4993482;28;20035;-68
2022/05/15 10:04:24;;;;;;;0.00;0.00;;;24.50;82.70;;;;;;4992999;28;19999;-68
2022/05/15 10:07:00;;;;;;;0.20;0.20;;;24.60;82.10;;;;;;4993076;28;20030;-68
2022/05/15 10:09:33;;;;;;;0.00;0.00;;;24.60;80.50;;;;;;4992227;28;20042;-68
2022/05/15 10:12:08;;;;;;;0.00;0.00;;;24.80;80.20;;;;;;4986849;28;20029;-67
2022/05/15 10:14:45;;;;;;;1.67;1.40;;;25.20;81.40;;;;;;4973532;28;20042;-68
2022/05/15 10:17:13;;;;;;;1.60;0.95;;;25.40;77.80;;;;;;4972273;28;20106;-68
2022/05/15 10:20:02;;;;;;;0.00;0.00;;;25.60;78.00;;;;;;4972974;28;20038;-68
2022/05/15 10:22:43;;;;;;;0.10;0.10;;;25.80;78.00;;;;;;4988157;28;20082;-68
2022/05/15 10:25:43;;;;;;;0.00;0.00;;;25.30;77.40;;;;;;4971916;28;20251;-68
2022/05/15 10:28:47;;;;;;;0.10;0.10;;;25.70;76.50;;;;;;4973240;28;20039;-67
2022/05/15 10:31:41;;;;;;;0.08;0.08;;;25.60;77.20;;;;;;4971799;28;20511;-68
2022/05/15 10:34:14;;;;;;;0.28;0.20;;;25.30;76.70;;;;;;4972066;28;20398;-68
2022/05/15 10:37:08;;;;;;;0.00;0.00;;;25.50;78.40;;;;;;4972970;28;20089;-68
2022/05/15 10:40:03;;;;;;;0.20;0.20;;;25.90;77.40;;;;;;4979498;28;20707;-68
2022/05/15 10:42:44;;;;;;;1.27;0.98;;;25.80;75.60;;;;;;4991410;28;20077;-68
2022/05/15 10:45:44;;;;;;;0.10;0.10;;;25.90;74.70;;;;;;4991472;28;20102;-67
2022/05/15 10:48:33;;;;;;;0.00;0.00;;;26.40;75.30;;;;;;4991279;28;20085;-66
2022/05/15 10:51:14;;;;;;;2.23;0.40;;;26.90;74.00;;;;;;4992045;28;20277;-67
2022/05/15 11:00:08;;;;;;;0.10;0.10;;;27.40;72.10;;;;;;4991580;28;20072;-68
2022/05/15 11:02:55;;;;;;;0.15;0.15;;;27.50;71.20;;;;;;4991816;28;20030;-68
2022/05/15 11:05:48;;;;;;;0.20;0.20;;;27.20;68.80;;;;;;4991655;28;20030;-68
2022/05/15 11:08:38;;;;;;;1.95;0.82;;;26.90;71.20;;;;;;4991683;28;20034;-68
2022/05/15 11:11:06;;;;;;;18.80;0.60;;;27.30;71.50;;;;;;4990701;28;20533;-68
2022/05/15 11:13:54;;;;;;;0.17;0.17;;;27.40;69.30;;;;;;4990311;28;20045;-68
2022/05/15 11:16:36;;;;;;;0.00;0.00;;;27.40;68.10;;;;;;4990515;28;20394;-68
2022/05/15 11:19:39;;;;;;;0.30;0.30;;;27.70;68.60;;;;;;4991093;28;20035;-66
2022/05/15 11:22:32;;;;;;;0.43;0.40;;;27.20;68.90;;;;;;4993980;28;20180;-67
2022/05/15 11:25:13;;;;;;;0.45;0.30;;;27.80;67.80;;;;;;4990560;28;20032;-66
2022/05/15 11:28:06;;;;;;;3.55;1.65;;;27.30;68.00;;;;;;4991627;28;20038;-67
2022/05/15 11:30:37;;;;;;;0.05;0.05;;;27.30;69.80;;;;;;4989911;28;20383;-67
2022/05/15 11:33:45;;;;;;;0.28;0.28;;;27.60;68.50;;;;;;4990438;28;20401;-67
2022/05/15 11:36:26;;;;;;;0.00;0.00;;;27.30;68.20;;;;;;4995857;28;20039;-68
2022/05/15 11:39:12;;;;;;;0.75;0.35;;;27.80;70.40;;;;;;4991065;28;20557;-69
2022/05/15 11:41:37;;;;;;;0.60;0.40;;;27.80;67.40;;;;;;4991575;28;20073;-66
2022/05/15 11:44:18;;;;;;;1.75;0.43;;;28.10;68.10;;;;;;4991189;28;20062;-66
2022/05/15 11:46:50;;;;;;;1.65;0.80;;;28.20;65.50;;;;;;4990285;28;20022;-66
2022/05/15 11:49:25;;;;;;;0.20;0.20;;;27.90;65.20;;;;;;4991431;28;20030;-66
2022/05/15 11:52:20;;;;;;;0.10;0.10;;;27.70;65.80;;;;;;4991010;28;20577;-67
2022/05/15 11:54:49;;;;;;;0.00;0.00;;;28.10;66.20;;;;;;5003684;28;20050;-67
2022/05/15 11:57:59;;;;;;;0.88;0.28;;;28.30;64.60;;;;;;4989829;28;20041;-67
2022/05/15 12:00:31;;;;;;;0.00;0.00;;;28.90;65.10;;;;;;4985534;28;20050;-68
2022/05/15 12:02:58;;;;;;;0.10;0.10;;;29.30;64.60;;;;;;4985018;28;20030;-67
2022/05/15 12:05:53;;;;;;;0.00;0.00;;;28.20;64.00;;;;;;4970418;28;20034;-68
2022/05/15 12:08:19;;;;;;;0.93;0.15;;;28.30;64.20;;;;;;4971090;28;20117;-67
2022/05/15 12:10:44;;;;;;;0.00;0.00;;;28.60;63.60;;;;;;4988508;28;20134;-68
2022/05/15 12:13:39;;;;;;;0.52;0.30;;;28.20;63.60;;;;;;4989813;28;20043;-66
2022/05/15 12:16:31;;;;;;;0.10;0.10;;;27.80;63.80;;;;;;4992812;28;20100;-68
2022/05/15 12:19:22;;;;;;;0.00;0.00;;;28.20;64.30;;;;;;4984179;28;20132;-68
2022/05/15 12:21:54;;;;;;;0.17;0.17;;;28.60;63.30;;;;;;4975209;28;20091;-68
2022/05/15 12:24:29;;;;;;;0.00;0.00;;;28.50;63.30;;;;;;4974002;28;20501;-68
2022/05/15 12:27:16;;;;;;;2.08;0.68;;;28.80;63.70;;;;;;4974074;28;20031;-70
2022/05/15 12:30:11;;;;;;;0.20;0.10;;;29.50;62.20;;;;;;4974695;28;20080;-68
2022/05/15 12:32:50;;;;;;;2.10;0.20;;;28.80;64.20;;;;;;4975032;28;20402;-68
2022/05/15 12:35:25;;;;;;;0.00;0.00;;;29.10;62.80;;;;;;4974221;28;20046;-68
2022/05/15 12:38:11;;;;;;;0.03;0.03;;;28.80;63.00;;;;;;4974206;28;20031;-63
2022/05/15 12:41:00;;;;;;;0.10;0.10;;;28.40;63.10;;;;;;4958816;28;20085;-66
2022/05/15 12:43:29;;;;;;;2.50;0.50;;;28.70;63.30;;;;;;4973839;28;20039;-64
2022/05/15 12:45:57;;;;;;;0.10;0.03;;;28.20;61.50;;;;;;4974859;28;20105;-66
2022/05/15 12:48:25;;;;;;;0.00;0.00;;;29.10;62.60;;;;;;4973265;28;20388;-66
2022/05/15 12:51:09;;;;;;;0.00;0.00;;;29.10;62.10;;;;;;4973513;28;20041;-66
2022/05/15 12:53:45;;;;;;;0.38;0.38;;;30.40;62.30;;;;;;4973724;28;20097;-65
2022/05/15 12:56:27;;;;;;;0.00;0.00;;;29.10;62.50;;;;;;4973381;28;20027;-66
2022/05/15 12:59:18;;;;;;;2.25;0.55;;;29.50;61.40;;;;;;4974538;28;20027;-65
2022/05/15 13:01:46;;;;;;;2.13;0.75;;;29.80;60.60;;;;;;4974453;28;20038;-65
2022/05/15 13:04:25;;;;;;;0.10;0.10;;;29.50;60.70;;;;;;4989441;28;20075;-65
2022/05/15 13:06:59;;;;;;;0.30;0.30;;;29.10;60.00;;;;;;4973206;28;20022;-66
2022/05/15 13:09:28;;;;;;;0.00;0.00;;;30.00;60.20;;;;;;4979765;28;20094;-71
2022/05/15 13:12:01;;;;;;;0.00;0.00;;;30.40;59.50;;;;;;4992289;28;20506;-75
2022/05/15 13:14:37;;;;;;;0.32;0.32;;;30.20;59.30;;;;;;4992677;28;20038;-72
2022/05/15 13:17:04;;;;;;;0.00;0.00;;;30.10;59.10;;;;;;4993577;28;20662;-75
2022/05/15 13:19:43;;;;;;;0.15;0.15;;;29.60;59.60;;;;;;4993234;28;20092;-75
2022/05/15 13:22:28;;;;;;;0.20;0.15;;;29.80;58.60;;;;;;4993278;28;20034;-76
2022/05/15 13:25:20;;;;;;;0.00;0.00;;;30.40;59.50;;;;;;4992480;28;20074;-75
2022/05/15 13:27:46;;;;;;;0.20;0.20;;;30.30;58.90;;;;;;4991027;28;20062;-75
2022/05/15 13:30:27;;;;;;;1.85;0.32;;;31.40;58.50;;;;;;4992240;28;20081;-67
2022/05/15 13:33:16;;;;;;;0.38;0.20;;;30.90;59.20;;;;;;4992126;28;20173;-71
2022/05/15 13:35:54;;;;;;;0.10;0.10;;;31.40;58.60;;;;;;4992301;28;20022;-74